Time;durP1;ratioP1;P1;durP2;ratioP2;P2;SDS_P1;SDS_P2;PMS_P1;PMS_P2;Temp;Humidity;BMP_temperature;BMP_pressure;BME280_temperature;BME280_humidity;BME280_pressure;Samples;Min_cycle;Max_cycle;Signal;HPM_P1;HPM_P2
2024/04/07 00:00:27;;;;;;;2.40;2.10;;;20.50;93.20;;;;;;5102907;28;20490;-42
2024/04/07 00:02:56;;;;;;;2.20;2.00;;;20.50;93.20;;;;;;5095765;28;20434;-43
2024/04/07 00:05:22;;;;;;;2.60;2.40;;;20.40;93.10;;;;;;5099784;28;21218;-41
2024/04/07 00:07:52;;;;;;;3.00;2.00;;;20.40;93.10;;;;;;5085399;28;20446;-36
2024/04/07 00:10:19;;;;;;;2.77;2.10;;;20.40;93.00;;;;;;5101081;28;20556;-41
2024/04/07 00:12:47;;;;;;;2.50;2.17;;;20.40;92.90;;;;;;5099605;28;20978;-43
2024/04/07 00:15:13;;;;;;;3.50;2.47;;;20.40;93.10;;;;;;5083266;28;20476;-40
2024/04/07 00:17:39;;;;;;;3.90;2.50;;;20.40;93.20;;;;;;5097530;28;20480;-40
2024/04/07 00:20:06;;;;;;;3.10;2.37;;;20.40;93.10;;;;;;5099125;28;20473;-41
2024/04/07 00:22:33;;;;;;;2.67;2.00;;;20.40;92.00;;;;;;5100612;28;20425;-43
2024/04/07 00:24:59;;;;;;;3.80;2.60;;;20.40;92.00;;;;;;5088010;28;21287;-41
2024/04/07 00:27:27;;;;;;;4.77;2.67;;;20.40;92.10;;;;;;5081142;28;20444;-44
2024/04/07 00:29:54;;;;;;;4.50;2.13;;;20.40;91.90;;;;;;5075242;28;20989;-43
2024/04/07 00:32:22;;;;;;;2.30;2.00;;;20.40;91.90;;;;;;5072479;28;20425;-43
2024/04/07 00:34:49;;;;;;;3.73;2.17;;;20.40;91.30;;;;;;5100424;28;20475;-39
2024/04/07 00:37:19;;;;;;;2.60;2.10;;;20.30;91.40;;;;;;5092695;28;20434;-40
2024/04/07 00:39:47;;;;;;;5.43;2.57;;;20.30;91.30;;;;;;5081507;28;20449;-42
2024/04/07 00:42:14;;;;;;;2.30;2.00;;;20.30;91.30;;;;;;5087828;28;20429;-36
2024/04/07 00:44:40;;;;;;;5.07;2.17;;;20.30;91.40;;;;;;5093919;28;20281;-39
2024/04/07 00:47:08;;;;;;;4.03;2.23;;;20.30;91.40;;;;;;5090488;28;20485;-43
2024/04/07 00:49:38;;;;;;;3.27;1.97;;;20.30;91.30;;;;;;5099855;28;20440;-40
2024/04/07 00:52:04;;;;;;;3.50;2.20;;;20.30;91.50;;;;;;5091439;28;21033;-44
2024/04/07 00:54:30;;;;;;;3.13;2.47;;;20.30;91.70;;;;;;5081868;28;20876;-41
2024/04/07 00:56:57;;;;;;;5.30;2.37;;;20.30;92.30;;;;;;5099222;28;20486;-43
2024/04/07 00:59:25;;;;;;;3.63;2.83;;;20.30;92.00;;;;;;5093631;27;20469;-41
2024/04/07 01:01:56;;;;;;;4.87;2.07;;;20.30;91.60;;;;;;5097520;28;20433;-42
2024/04/07 01:04:22;;;;;;;4.07;2.33;;;20.30;91.40;;;;;;5094659;28;20441;-43
2024/04/07 01:06:49;;;;;;;2.20;2.00;;;20.30;91.40;;;;;;5079336;28;20470;-36
2024/04/07 01:09:17;;;;;;;3.83;1.90;;;20.30;91.50;;;;;;5099025;28;20457;-38
2024/04/07 01:11:43;;;;;;;2.80;2.00;;;20.30;91.80;;;;;;5077445;28;20525;-42
2024/04/07 01:14:09;;;;;;;4.13;2.20;;;20.30;92.00;;;;;;5094916;28;20523;-44
2024/04/07 01:16:35;;;;;;;2.63;1.90;;;20.20;92.00;;;;;;5098396;28;20469;-40
2024/04/07 01:19:01;;;;;;;4.57;2.30;;;20.20;91.80;;;;;;5098262;28;20976;-41
2024/04/07 01:21:27;;;;;;;2.70;2.17;;;20.20;91.30;;;;;;5093811;28;20452;-39
2024/04/07 01:23:54;;;;;;;4.93;1.83;;;20.20;91.70;;;;;;5083323;28;20475;-38
2024/04/07 01:26:21;;;;;;;4.73;2.30;;;20.20;92.20;;;;;;5096997;28;20473;-44
2024/04/07 01:28:47;;;;;;;5.23;2.37;;;20.20;92.00;;;;;;5098617;28;20441;-42
2024/04/07 01:31:18;;;;;;;3.20;1.80;;;20.20;92.10;;;;;;5099145;28;20809;-44
2024/04/07 01:33:44;;;;;;;2.87;2.30;;;20.20;91.90;;;;;;5098543;28;20424;-41
2024/04/07 01:36:10;;;;;;;2.50;2.30;;;20.20;92.10;;;;;;5086292;28;20464;-41
2024/04/07 01:38:36;;;;;;;4.00;2.40;;;20.20;92.10;;;;;;5098521;28;20425;-45
2024/04/07 01:41:05;;;;;;;3.13;2.27;;;20.20;92.40;;;;;;5098549;28;20432;-42
2024/04/07 01:43:31;;;;;;;6.40;2.60;;;20.20;92.50;;;;;;5094334;28;20464;-40
2024/04/07 01:45:57;;;;;;;4.73;2.50;;;20.20;92.60;;;;;;5092904;28;20435;-41
2024/04/07 01:48:26;;;;;;;6.50;3.33;;;20.10;92.60;;;;;;5078592;28;20432;-43
2024/04/07 01:50:52;;;;;;;5.77;2.50;;;20.10;92.50;;;;;;5098433;28;21264;-43
2024/04/07 01:53:18;;;;;;;2.33;2.07;;;20.10;92.70;;;;;;5095904;28;20445;-44
2024/04/07 01:55:44;;;;;;;4.50;2.03;;;20.10;92.70;;;;;;5096471;28;20459;-44
2024/04/07 01:58:12;;;;;;;2.60;2.00;;;20.10;92.70;;;;;;5081547;28;21222;-43
2024/04/07 02:00:38;;;;;;;3.90;2.57;;;20.10;92.30;;;;;;5075802;28;21018;-40
2024/04/07 02:03:04;;;;;;;3.07;1.97;;;20.10;92.80;;;;;;5095192;28;20592;-44
2024/04/07 02:05:30;;;;;;;3.90;2.90;;;20.10;92.10;;;;;;5096164;28;20424;-42
2024/04/07 02:07:58;;;;;;;7.60;1.87;;;20.10;91.30;;;;;;5075584;28;20551;-42
2024/04/07 02:10:24;;;;;;;7.60;2.40;;;20.10;91.60;;;;;;5100519;28;20892;-43
2024/04/07 02:12:50;;;;;;;10.23;2.70;;;20.10;91.10;;;;;;5069778;28;20556;-44
2024/04/07 02:15:17;;;;;;;4.00;1.70;;;20.10;91.00;;;;;;5083946;28;20518;-42
2024/04/07 02:17:44;;;;;;;6.23;2.20;;;20.10;90.80;;;;;;5102737;28;20412;-44
2024/04/07 02:20:11;;;;;;;4.73;2.27;;;20.10;90.90;;;;;;5087292;28;20448;-44
2024/04/07 02:22:37;;;;;;;5.40;2.70;;;20.10;91.40;;;;;;5098422;28;20461;-43
2024/04/07 02:25:04;;;;;;;4.60;2.60;;;20.00;91.40;;;;;;5100656;28;20432;-40
2024/04/07 02:27:33;;;;;;;2.73;2.00;;;20.00;91.50;;;;;;5101286;28;20466;-41
2024/04/07 02:29:59;;;;;;;2.93;2.37;;;20.00;91.30;;;;;;5104741;28;20440;-42
2024/04/07 02:32:26;;;;;;;2.70;1.90;;;20.00;91.40;;;;;;5096103;28;20499;-41
2024/04/07 02:34:56;;;;;;;3.53;2.10;;;20.00;91.30;;;;;;5088031;28;20462;-40
2024/04/07 02:37:23;;;;;;;3.30;2.07;;;20.00;91.40;;;;;;5069021;28;20425;-37
2024/04/07 02:39:49;;;;;;;4.33;2.27;;;20.00;91.40;;;;;;5086563;28;20494;-35
2024/04/07 02:42:15;;;;;;;2.43;2.20;;;20.00;91.80;;;;;;5085745;28;20414;-37
2024/04/07 02:50:11;;;;;;;2.30;2.03;;;19.90;91.50;;;;;;5086697;28;20433;-39
2024/04/07 02:52:39;;;;;;;5.43;2.20;;;20.00;91.80;;;;;;5098916;28;20430;-38
2024/04/07 02:55:08;;;;;;;5.83;2.17;;;19.90;91.40;;;;;;5104664;27;20460;-38
2024/04/07 02:57:34;;;;;;;5.20;1.80;;;19.90;91.70;;;;;;5102260;28;20418;-37
2024/04/07 03:00:02;;;;;;;5.53;2.13;;;19.90;92.00;;;;;;5104473;28;20834;-40
2024/04/07 03:02:31;;;;;;;3.53;2.50;;;20.00;92.00;;;;;;5104345;28;20592;-40
2024/04/07 03:04:58;;;;;;;2.90;2.20;;;19.90;92.40;;;;;;5104341;28;20420;-39
2024/04/07 03:07:24;;;;;;;5.20;2.57;;;19.90;91.90;;;;;;5119871;27;20524;-38
2024/04/07 03:09:54;;;;;;;4.60;2.23;;;19.90;92.20;;;;;;5103777;28;20440;-40
2024/04/07 03:12:20;;;;;;;3.30;2.20;;;19.90;92.20;;;;;;5105388;28;20442;-33
2024/04/07 03:14:52;;;;;;;4.20;2.20;;;19.90;91.90;;;;;;5103535;28;20419;-34
2024/04/07 03:17:18;;;;;;;3.93;2.30;;;19.90;92.10;;;;;;5104484;28;20433;-39
2024/04/07 03:19:44;;;;;;;5.70;2.37;;;19.90;92.20;;;;;;5105852;28;20510;-40
2024/04/07 03:22:12;;;;;;;6.13;2.53;;;19.90;92.40;;;;;;5105657;28;20521;-37
2024/04/07 03:24:41;;;;;;;7.50;2.73;;;19.90;92.40;;;;;;5105303;28;20919;-38
2024/04/07 03:27:07;;;;;;;5.53;2.43;;;19.90;92.50;;;;;;5103907;28;20425;-35
2024/04/07 03:29:36;;;;;;;5.70;3.30;;;19.90;92.40;;;;;;5105952;27;20434;-36
2024/04/07 03:32:03;;;;;;;5.50;2.77;;;19.80;92.40;;;;;;5104159;27;20409;-40
2024/04/07 03:34:32;;;;;;;5.80;2.60;;;19.80;92.60;;;;;;5103611;27;21008;-38
2024/04/07 03:36:59;;;;;;;5.23;2.13;;;19.80;92.90;;;;;;5102420;27;20447;-39
2024/04/07 03:39:25;;;;;;;5.43;2.57;;;19.80;93.00;;;;;;5102505;28;21043;-42
2024/04/07 03:41:51;;;;;;;5.50;2.43;;;19.80;93.00;;;;;;5099194;28;20435;-38
2024/04/07 03:44:18;;;;;;;4.33;2.23;;;19.80;93.00;;;;;;5100465;28;20412;-35
2024/04/07 03:46:50;;;;;;;8.43;2.13;;;19.80;93.20;;;;;;5100944;28;20413;-35
2024/04/07 03:49:18;;;;;;;3.17;2.20;;;19.80;93.20;;;;;;5099659;28;20444;-40
2024/04/07 03:51:46;;;;;;;8.27;2.87;;;19.80;93.30;;;;;;5100612;28;21196;-36
2024/04/07 03:54:12;;;;;;;4.80;2.50;;;19.80;93.50;;;;;;5100468;28;20429;-39
2024/04/07 03:56:38;;;;;;;4.00;2.27;;;19.70;93.50;;;;;;5098733;27;20459;-37
2024/04/07 03:59:04;;;;;;;3.40;2.43;;;19.70;93.50;;;;;;5082698;28;20432;-33
2024/04/07 04:01:31;;;;;;;3.70;2.30;;;19.80;93.60;;;;;;5101968;28;20435;-38
2024/04/07 04:03:57;;;;;;;4.23;2.40;;;19.70;93.70;;;;;;5101277;28;20420;-34
2024/04/07 04:06:25;;;;;;;5.67;2.60;;;19.70;93.90;;;;;;5100427;28;20432;-39
2024/04/07 04:08:53;;;;;;;6.00;2.40;;;19.70;94.00;;;;;;5101135;28;20535;-37
2024/04/07 04:11:20;;;;;;;4.13;2.40;;;19.70;94.10;;;;;;5101558;28;20440;-37
2024/04/07 04:13:50;;;;;;;3.07;2.07;;;19.70;94.20;;;;;;5101472;28;20428;-38
2024/04/07 04:16:21;;;;;;;6.10;2.50;;;19.70;94.30;;;;;;5101044;28;20740;-38
2024/04/07 04:18:50;;;;;;;4.63;2.40;;;19.70;94.40;;;;;;5100284;28;20419;-39
2024/04/07 04:21:16;;;;;;;7.20;2.70;;;19.70;94.50;;;;;;5099751;28;20580;-39
2024/04/07 04:23:42;;;;;;;4.73;2.27;;;19.70;94.50;;;;;;5099359;28;20416;-38
2024/04/07 04:26:08;;;;;;;6.23;2.30;;;19.70;94.60;;;;;;5101332;28;20444;-38
2024/04/07 04:28:34;;;;;;;5.40;2.50;;;19.70;94.70;;;;;;5100361;28;20249;-36
2024/04/07 04:31:07;;;;;;;5.30;2.40;;;19.70;94.80;;;;;;5101343;28;20423;-39
2024/04/07 04:33:33;;;;;;;3.33;2.40;;;19.60;94.80;;;;;;5099139;28;20435;-39
2024/04/07 04:35:59;;;;;;;6.77;2.60;;;19.60;94.80;;;;;;5101118;28;21368;-36
2024/04/07 04:38:28;;;;;;;2.80;2.20;;;19.60;94.60;;;;;;5098975;28;21231;-36
2024/04/07 04:40:59;;;;;;;5.53;2.20;;;19.60;94.80;;;;;;5100318;28;20505;-37
2024/04/07 04:43:25;;;;;;;7.00;3.10;;;19.60;94.80;;;;;;5099281;28;20533;-39
2024/04/07 04:46:04;;;;;;;7.00;3.10;;;19.60;94.90;;;;;;5100849;28;20407;-36
2024/04/07 04:48:37;;;;;;;4.53;2.77;;;19.60;94.90;;;;;;5101442;28;20440;-40
2024/04/07 04:51:04;;;;;;;2.50;2.13;;;19.60;94.70;;;;;;5101800;28;20461;-38
2024/04/07 04:53:30;;;;;;;6.93;2.27;;;19.50;94.70;;;;;;5103034;28;20424;-40
2024/04/07 04:56:02;;;;;;;5.80;2.60;;;19.50;94.60;;;;;;5105003;28;21074;-36
2024/04/07 04:58:31;;;;;;;6.23;2.70;;;19.50;94.40;;;;;;5100877;28;20814;-42
2024/04/07 05:01:10;;;;;;;6.10;2.17;;;19.50;94.20;;;;;;5098851;28;20432;-41
2024/04/07 05:03:37;;;;;;;4.77;2.53;;;19.50;94.30;;;;;;5098719;28;20480;-38
2024/04/07 05:06:13;;;;;;;4.53;2.20;;;19.50;94.10;;;;;;5100720;28;20427;-38
2024/04/07 05:08:40;;;;;;;5.10;2.80;;;19.50;94.00;;;;;;5100002;28;20424;-41
2024/04/07 05:11:08;;;;;;;4.57;2.30;;;19.50;94.20;;;;;;5098116;28;21463;-38
2024/04/07 05:13:37;;;;;;;5.83;2.43;;;19.50;94.10;;;;;;5097299;28;20523;-39
2024/04/07 05:16:04;;;;;;;3.90;2.50;;;19.50;94.10;;;;;;5099243;28;20506;-35
2024/04/07 05:18:30;;;;;;;2.70;2.23;;;19.40;94.00;;;;;;5098655;28;20443;-38
2024/04/07 05:21:04;;;;;;;5.30;2.30;;;19.40;94.10;;;;;;5098836;28;20436;-38
2024/04/07 05:23:39;;;;;;;7.33;2.53;;;19.40;94.20;;;;;;5097006;28;20404;-39
2024/04/07 05:26:18;;;;;;;5.47;2.40;;;19.40;94.20;;;;;;5097194;28;20476;-40
2024/04/07 05:28:45;;;;;;;6.07;2.80;;;19.40;94.30;;;;;;5098838;28;20420;-37
2024/04/07 05:31:13;;;;;;;4.17;2.10;;;19.40;94.50;;;;;;5098034;28;20431;-40
2024/04/07 05:33:42;;;;;;;3.50;2.40;;;19.40;94.60;;;;;;5098318;28;20444;-38
2024/04/07 05:36:10;;;;;;;3.30;2.30;;;19.40;94.70;;;;;;5098621;28;20448;-33
2024/04/07 05:38:38;;;;;;;4.63;2.33;;;19.40;94.80;;;;;;5097190;28;20444;-42
2024/04/07 05:41:07;;;;;;;4.80;2.30;;;19.40;94.90;;;;;;5098059;28;20420;-38
2024/04/07 05:43:34;;;;;;;3.43;2.63;;;19.40;95.10;;;;;;5096959;28;20763;-39
2024/04/07 05:46:08;;;;;;;5.70;2.40;;;19.40;95.20;;;;;;5096856;28;20423;-41
2024/04/07 05:48:35;;;;;;;4.23;2.37;;;19.40;95.60;;;;;;5096315;28;20455;-38
2024/04/07 05:51:03;;;;;;;3.53;2.50;;;19.40;95.40;;;;;;5099255;28;20428;-40
2024/04/07 05:53:29;;;;;;;3.73;2.30;;;19.40;95.50;;;;;;5096342;28;20420;-40
2024/04/07 05:55:55;;;;;;;4.20;2.13;;;19.40;95.50;;;;;;5098456;28;20459;-36
2024/04/07 05:58:22;;;;;;;4.20;2.53;;;19.40;95.60;;;;;;5095954;28;20949;-38
2024/04/07 06:00:48;;;;;;;4.67;2.40;;;19.30;95.60;;;;;;5096683;28;20467;-35
2024/04/07 06:03:14;;;;;;;3.57;2.27;;;19.40;95.70;;;;;;5096107;28;20470;-38
2024/04/07 06:05:40;;;;;;;3.90;2.10;;;19.30;95.70;;;;;;5097881;28;20851;-33
2024/04/07 06:08:10;;;;;;;2.57;2.27;;;19.30;95.60;;;;;;5097611;28;20496;-41
2024/04/07 06:10:37;;;;;;;2.80;1.77;;;19.30;95.70;;;;;;5098293;28;20459;-34
2024/04/07 06:13:04;;;;;;;3.93;2.00;;;19.30;95.70;;;;;;5098834;28;21301;-39
2024/04/07 06:15:30;;;;;;;3.43;2.07;;;19.30;95.70;;;;;;5098434;28;20479;-39
2024/04/07 06:17:58;;;;;;;3.00;2.17;;;19.30;95.60;;;;;;5101992;28;20496;-38
2024/04/07 06:20:24;;;;;;;3.27;2.23;;;19.30;95.70;;;;;;5100395;28;20839;-43
2024/04/07 06:22:50;;;;;;;4.83;2.17;;;19.30;95.70;;;;;;5097346;28;20432;-42
2024/04/07 06:25:19;;;;;;;3.53;2.13;;;19.30;95.60;;;;;;5095422;28;20649;-41
2024/04/07 06:27:46;;;;;;;4.37;2.60;;;19.30;95.70;;;;;;5078922;28;20432;-41
2024/04/07 06:30:16;;;;;;;3.93;2.20;;;19.30;95.70;;;;;;5078065;28;20449;-43
2024/04/07 06:32:41;;;;;;;3.53;2.03;;;19.30;95.80;;;;;;5097926;28;20428;-41
2024/04/07 06:35:10;;;;;;;3.90;2.63;;;19.30;95.80;;;;;;5072580;28;20460;-43
2024/04/07 06:37:36;;;;;;;4.50;2.10;;;19.20;95.70;;;;;;5032602;28;20441;-43
2024/04/07 06:40:05;;;;;;;3.50;1.73;;;19.30;95.60;;;;;;5090691;28;20835;-43
2024/04/07 06:42:32;;;;;;;4.27;1.97;;;19.30;95.60;;;;;;5097942;28;21192;-42
2024/04/07 06:45:01;;;;;;;2.60;2.00;;;19.30;95.60;;;;;;5085313;28;20467;-42
2024/04/07 06:47:28;;;;;;;2.60;1.93;;;19.30;95.70;;;;;;5086397;28;20418;-43
2024/04/07 06:49:57;;;;;;;3.20;2.00;;;19.30;95.70;;;;;;5092921;28;20480;-41
2024/04/07 06:52:24;;;;;;;3.77;2.20;;;19.30;95.70;;;;;;5094314;28;20496;-42
2024/04/07 06:54:51;;;;;;;3.83;2.50;;;19.30;95.70;;;;;;5087812;28;20425;-42
2024/04/07 06:57:19;;;;;;;5.17;1.80;;;19.30;95.70;;;;;;5087018;28;20449;-41
2024/04/07 06:59:50;;;;;;;3.83;2.03;;;19.30;95.60;;;;;;5077654;28;20448;-42
2024/04/07 07:02:17;;;;;;;3.67;1.87;;;19.30;95.50;;;;;;5064467;28;20454;-42
2024/04/07 07:04:43;;;;;;;3.33;1.93;;;19.30;95.50;;;;;;5080565;28;21136;-43
2024/04/07 07:07:11;;;;;;;4.27;1.77;;;19.30;95.50;;;;;;5096193;28;20420;-43
2024/04/07 07:09:42;;;;;;;3.77;1.80;;;19.20;95.40;;;;;;5065118;28;20501;-42
2024/04/07 07:12:08;;;;;;;3.10;1.97;;;19.30;95.50;;;;;;5095436;28;20427;-42
2024/04/07 07:14:34;;;;;;;3.40;1.60;;;19.20;95.50;;;;;;5096216;28;20413;-43
2024/04/07 07:17:00;;;;;;;3.57;1.80;;;19.30;95.60;;;;;;5082660;28;20471;-40
2024/04/07 07:19:29;;;;;;;3.97;1.90;;;19.30;95.60;;;;;;5073582;28;20663;-43
2024/04/07 07:21:57;;;;;;;4.13;2.50;;;19.30;95.60;;;;;;5078893;28;20522;-40
2024/04/07 07:24:23;;;;;;;4.13;2.00;;;19.20;95.60;;;;;;5092849;28;20416;-42
2024/04/07 07:26:49;;;;;;;2.20;1.93;;;19.30;95.60;;;;;;5099362;28;20420;-43
2024/04/07 07:29:15;;;;;;;3.27;2.27;;;19.20;95.50;;;;;;5097282;28;20439;-42
2024/04/07 07:31:42;;;;;;;3.97;2.00;;;19.30;95.70;;;;;;5094927;28;20465;-42
2024/04/07 07:34:08;;;;;;;4.60;2.23;;;19.30;95.70;;;;;;5092629;28;21228;-41
2024/04/07 07:36:34;;;;;;;4.20;2.50;;;19.20;95.50;;;;;;5081110;28;20999;-41
2024/04/07 07:39:05;;;;;;;5.47;2.17;;;19.30;95.50;;;;;;5076941;28;20448;-40
2024/04/07 07:41:34;;;;;;;6.90;2.23;;;19.30;95.50;;;;;;5104278;28;20852;-43
2024/04/07 07:44:03;;;;;;;3.00;2.13;;;19.30;95.60;;;;;;5088552;28;20507;-43
2024/04/07 07:46:30;;;;;;;4.80;2.07;;;19.30;95.60;;;;;;5106553;28;20452;-43
2024/04/07 07:48:58;;;;;;;6.13;2.10;;;19.30;95.60;;;;;;5071462;28;20492;-42
2024/04/07 07:51:24;;;;;;;4.07;1.70;;;19.30;95.60;;;;;;5077351;28;20444;-42
2024/04/07 07:53:53;;;;;;;2.20;1.50;;;19.30;95.70;;;;;;5071258;28;20509;-43
2024/04/07 07:56:19;;;;;;;4.43;2.00;;;19.20;95.70;;;;;;5084464;28;20468;-42
2024/04/07 07:58:48;;;;;;;4.73;2.40;;;19.30;95.80;;;;;;5081509;28;20416;-43
2024/04/07 08:01:14;;;;;;;5.70;1.90;;;19.30;95.70;;;;;;5101742;28;20447;-42
2024/04/07 08:03:40;;;;;;;4.50;2.30;;;19.30;95.70;;;;;;5101572;28;21006;-42
2024/04/07 08:06:06;;;;;;;3.10;2.20;;;19.30;95.70;;;;;;5100889;28;20430;-40
2024/04/07 08:08:32;;;;;;;2.80;1.93;;;19.30;95.60;;;;;;5090155;28;20480;-43
2024/04/07 08:10:58;;;;;;;4.73;1.97;;;19.20;95.60;;;;;;5085590;28;20547;-43
2024/04/07 08:13:28;;;;;;;2.47;1.90;;;19.20;95.60;;;;;;5103076;28;21234;-39
2024/04/07 08:15:54;;;;;;;3.67;2.10;;;19.30;95.70;;;;;;5081227;28;21026;-41
2024/04/07 08:18:20;;;;;;;3.73;1.87;;;19.30;95.70;;;;;;5103511;27;20428;-43
2024/04/07 08:20:47;;;;;;;3.73;1.93;;;19.30;95.80;;;;;;5102177;28;20444;-40
2024/04/07 08:23:16;;;;;;;4.80;2.40;;;19.20;95.70;;;;;;5102467;28;20455;-42
2024/04/07 08:25:42;;;;;;;6.47;2.57;;;19.30;95.80;;;;;;5100450;28;20542;-40
2024/04/07 08:28:10;;;;;;;5.70;1.90;;;19.20;95.60;;;;;;5102187;28;20543;-41
2024/04/07 08:30:35;;;;;;;2.73;2.07;;;19.30;95.60;;;;;;5101715;28;20517;-42
2024/04/07 08:33:02;;;;;;;4.10;1.90;;;19.30;95.60;;;;;;5095982;28;20691;-39
2024/04/07 08:35:27;;;;;;;2.77;1.90;;;19.30;95.50;;;;;;5070733;28;21185;-43
2024/04/07 08:37:54;;;;;;;4.27;1.87;;;19.30;95.60;;;;;;5097717;28;20467;-37
2024/04/07 08:40:20;;;;;;;4.70;1.80;;;19.30;95.60;;;;;;5093655;28;20206;-43
2024/04/07 08:42:50;;;;;;;1.97;1.57;;;19.30;95.60;;;;;;5078443;28;20921;-39
2024/04/07 08:45:20;;;;;;;2.23;1.77;;;19.30;95.60;;;;;;5077019;28;21614;-40
2024/04/07 08:47:49;;;;;;;2.77;1.70;;;19.30;95.70;;;;;;5097919;27;20448;-42
2024/04/07 08:50:16;;;;;;;4.67;2.27;;;19.30;95.60;;;;;;5095984;28;20453;-40
2024/04/07 08:52:44;;;;;;;3.33;1.90;;;19.30;95.60;;;;;;5079404;28;20476;-43
2024/04/07 08:55:11;;;;;;;3.10;1.93;;;19.30;95.60;;;;;;5083036;28;21031;-42
2024/04/07 08:57:40;;;;;;;4.10;1.90;;;19.30;95.50;;;;;;5081667;28;20443;-44
2024/04/07 09:00:08;;;;;;;3.87;2.00;;;19.30;95.60;;;;;;5095855;28;21025;-43
2024/04/07 09:02:36;;;;;;;3.03;1.63;;;19.30;95.50;;;;;;5097527;27;20554;-40
2024/04/07 09:05:04;;;;;;;2.00;1.77;;;19.30;95.50;;;;;;5097044;28;21146;-41
2024/04/07 09:07:33;;;;;;;2.63;1.60;;;19.30;95.40;;;;;;5096732;28;20425;-44
2024/04/07 09:10:00;;;;;;;4.70;1.50;;;19.30;95.50;;;;;;5089177;28;21123;-42
2024/04/07 09:12:28;;;;;;;3.77;1.87;;;19.40;95.50;;;;;;5098114;28;21006;-43
2024/04/07 09:14:56;;;;;;;4.40;1.60;;;19.40;95.40;;;;;;5059704;28;21141;-43
2024/04/07 09:17:25;;;;;;;5.80;1.97;;;19.40;95.40;;;;;;5082954;28;20509;-40
2024/04/07 09:19:51;;;;;;;3.23;1.40;;;19.40;95.50;;;;;;5095402;28;20954;-42
2024/04/07 09:22:20;;;;;;;3.53;1.73;;;19.40;95.30;;;;;;5083716;28;20432;-42
2024/04/07 09:24:46;;;;;;;4.67;1.83;;;19.40;95.20;;;;;;5076213;28;21050;-40
2024/04/07 09:27:17;;;;;;;5.03;1.60;;;19.40;95.00;;;;;;5091864;28;20431;-41
2024/04/07 09:29:44;;;;;;;5.70;1.50;;;19.50;94.70;;;;;;5055149;22;21073;-43
2024/04/07 09:32:10;;;;;;;5.40;1.90;;;19.50;94.30;;;;;;5036123;28;20412;-42
2024/04/07 09:34:36;;;;;;;2.80;1.53;;;19.50;94.10;;;;;;5036067;28;20493;-42
2024/04/07 09:37:04;;;;;;;1.87;1.20;;;19.50;94.00;;;;;;5035628;28;21761;-41
2024/04/07 09:39:30;;;;;;;5.47;1.77;;;19.50;93.80;;;;;;5037083;28;20449;-42
2024/04/07 09:42:03;;;;;;;4.67;1.80;;;19.60;93.80;;;;;;5036661;28;20465;-41
2024/04/07 09:44:34;;;;;;;2.73;1.23;;;19.60;93.60;;;;;;5034738;28;21025;-42
2024/04/07 09:47:09;;;;;;;2.57;1.40;;;19.60;93.40;;;;;;5035960;28;20543;-39
2024/04/07 09:49:38;;;;;;;2.90;1.30;;;19.60;93.20;;;;;;5035743;28;20454;-41
2024/04/07 09:52:05;;;;;;;3.67;1.50;;;19.60;93.00;;;;;;5035888;28;20495;-42
2024/04/07 09:54:45;;;;;;;4.47;1.53;;;19.60;92.60;;;;;;5035724;28;20424;-41
2024/04/07 09:57:16;;;;;;;2.10;1.47;;;19.60;92.40;;;;;;5035793;28;20432;-41
2024/04/07 09:59:43;;;;;;;2.40;1.23;;;19.70;92.50;;;;;;5033865;28;20445;-42
2024/04/07 10:02:11;;;;;;;2.00;1.27;;;19.70;92.40;;;;;;5033322;28;20650;-41
2024/04/07 10:04:41;;;;;;;2.93;1.43;;;19.70;92.20;;;;;;5031458;28;20434;-41
2024/04/07 10:07:10;;;;;;;2.93;1.23;;;19.70;92.10;;;;;;5019617;28;21189;-41
2024/04/07 10:09:40;;;;;;;3.70;1.30;;;19.70;91.80;;;;;;5035494;28;20526;-41
2024/04/07 10:12:10;;;;;;;1.70;1.00;;;19.70;91.70;;;;;;5036428;28;21018;-41
2024/04/07 10:14:39;;;;;;;1.30;1.00;;;19.70;91.50;;;;;;5034723;28;20443;-42
2024/04/07 10:17:07;;;;;;;1.83;1.10;;;19.70;91.60;;;;;;5034135;28;20475;-41
2024/04/07 10:19:33;;;;;;;2.73;1.30;;;19.70;91.50;;;;;;5035079;28;20451;-42
2024/04/07 10:22:02;;;;;;;2.17;1.27;;;19.70;91.30;;;;;;5036182;28;20434;-41
2024/04/07 10:24:30;;;;;;;1.80;1.23;;;19.80;91.50;;;;;;5010761;28;21293;-42
2024/04/07 10:26:59;;;;;;;1.23;0.93;;;19.80;91.30;;;;;;5035634;28;20462;-42
2024/04/07 10:29:27;;;;;;;2.07;1.40;;;19.80;91.60;;;;;;5035687;28;20593;-41
2024/04/07 10:31:56;;;;;;;2.47;0.83;;;19.80;91.70;;;;;;5036073;28;20439;-41
2024/04/07 10:34:22;;;;;;;2.73;1.43;;;19.80;91.70;;;;;;5035543;28;20429;-39
2024/04/07 10:36:55;;;;;;;1.60;1.10;;;19.80;91.70;;;;;;5038082;28;20492;-41
2024/04/07 10:39:23;;;;;;;1.30;1.00;;;19.80;91.80;;;;;;5032516;28;20462;-41
2024/04/07 10:41:49;;;;;;;4.30;1.33;;;19.80;91.80;;;;;;5033796;28;20428;-42
2024/04/07 10:44:16;;;;;;;3.93;1.20;;;19.80;91.80;;;;;;5033880;28;20455;-42
2024/04/07 10:46:45;;;;;;;3.03;1.13;;;19.90;91.80;;;;;;5017461;28;20568;-42
2024/04/07 10:49:11;;;;;;;2.23;1.23;;;19.80;91.60;;;;;;5035105;28;20448;-41
2024/04/07 10:51:38;;;;;;;2.80;1.53;;;19.90;91.70;;;;;;5037190;28;20933;-42
2024/04/07 10:54:05;;;;;;;2.60;1.10;;;19.90;91.50;;;;;;5038036;28;20531;-41
2024/04/07 10:56:32;;;;;;;3.23;1.30;;;19.90;91.40;;;;;;5038335;28;20471;-41
2024/04/07 10:59:02;;;;;;;2.10;1.00;;;19.90;91.50;;;;;;5040420;28;20529;-41
2024/04/07 11:01:30;;;;;;;1.43;1.00;;;19.90;91.50;;;;;;5037992;28;21308;-42
2024/04/07 11:03:59;;;;;;;2.07;1.50;;;19.90;91.80;;;;;;5038296;28;20515;-42
2024/04/07 11:06:29;;;;;;;2.40;1.50;;;19.90;91.50;;;;;;5037355;28;20459;-42
2024/04/07 11:08:55;;;;;;;2.10;1.30;;;19.90;91.60;;;;;;5040025;28;20424;-42
2024/04/07 11:11:23;;;;;;;4.07;1.40;;;20.00;91.70;;;;;;5021710;28;20553;-41
2024/04/07 11:13:55;;;;;;;2.87;1.20;;;20.00;91.70;;;;;;5037672;28;20437;-41
2024/04/07 11:16:24;;;;;;;3.13;1.03;;;20.00;91.80;;;;;;5038025;28;20498;-40
2024/04/07 11:18:50;;;;;;;5.37;1.73;;;20.00;91.90;;;;;;5043125;28;20449;-41
2024/04/07 11:21:17;;;;;;;2.20;1.30;;;20.00;91.80;;;;;;5040356;28;20448;-41
2024/04/07 11:23:44;;;;;;;2.07;1.30;;;20.10;91.90;;;;;;5037106;28;20415;-41
2024/04/07 11:26:12;;;;;;;1.30;1.20;;;20.00;91.90;;;;;;5035109;28;21483;-42
2024/04/07 11:28:38;;;;;;;2.30;1.20;;;20.10;91.80;;;;;;5035435;28;20469;-42
2024/04/07 11:31:08;;;;;;;3.63;1.40;;;20.10;91.90;;;;;;5040928;28;20432;-41
2024/04/07 11:33:36;;;;;;;3.60;1.20;;;20.10;92.00;;;;;;5041899;28;20627;-41
2024/04/07 11:36:03;;;;;;;3.33;1.03;;;20.10;91.90;;;;;;5043121;28;20511;-40
2024/04/07 11:38:35;;;;;;;3.73;1.27;;;20.20;92.00;;;;;;5039382;28;20421;-41
2024/04/07 11:41:01;;;;;;;2.70;1.10;;;20.10;92.00;;;;;;5038408;28;20469;-42
2024/04/07 11:43:30;;;;;;;3.97;1.60;;;20.20;91.90;;;;;;5038657;28;20421;-42
2024/04/07 11:45:59;;;;;;;4.10;1.63;;;20.20;91.70;;;;;;5035370;28;20782;-41
2024/04/07 11:48:27;;;;;;;2.33;1.43;;;20.20;91.70;;;;;;5035433;28;20520;-42
2024/04/07 11:50:53;;;;;;;5.33;1.63;;;20.30;92.00;;;;;;5037893;28;21080;-41
2024/04/07 11:53:24;;;;;;;3.87;1.43;;;20.30;91.70;;;;;;5037007;28;20440;-41
2024/04/07 11:55:50;;;;;;;2.13;1.30;;;20.30;91.70;;;;;;5037227;28;20479;-41
2024/04/07 11:58:18;;;;;;;4.13;1.30;;;20.30;91.70;;;;;;5038722;28;20417;-41
2024/04/07 12:00:47;;;;;;;3.93;1.20;;;20.30;91.60;;;;;;5035299;28;20447;-41
2024/04/07 12:03:13;;;;;;;4.23;1.20;;;20.30;91.20;;;;;;5038969;28;20505;-41
2024/04/07 12:05:39;;;;;;;8.63;1.93;;;20.40;91.00;;;;;;5037448;28;21151;-40
2024/04/07 12:08:10;;;;;;;4.20;1.33;;;20.40;91.00;;;;;;5036739;28;20442;-41
2024/04/07 12:10:36;;;;;;;3.33;1.27;;;20.40;90.60;;;;;;5020825;28;20626;-41
2024/04/07 12:13:05;;;;;;;5.23;1.40;;;20.40;90.80;;;;;;5036927;28;20435;-40
2024/04/07 12:15:34;;;;;;;3.00;1.27;;;20.50;91.00;;;;;;5038848;28;20503;-41
2024/04/07 12:18:02;;;;;;;4.00;1.47;;;20.50;91.10;;;;;;5037748;28;20428;-41
2024/04/07 12:20:28;;;;;;;3.03;1.20;;;20.50;91.10;;;;;;5038401;28;21024;-42
2024/04/07 12:22:57;;;;;;;2.70;1.00;;;20.50;91.00;;;;;;5041355;28;20442;-41
2024/04/07 12:25:25;;;;;;;3.70;1.40;;;20.50;90.50;;;;;;5039797;28;20427;-41
2024/04/07 12:27:51;;;;;;;1.97;1.00;;;20.60;90.30;;;;;;5039419;28;20504;-41
2024/04/07 12:30:17;;;;;;;3.33;1.50;;;20.50;90.40;;;;;;5042417;28;20874;-40
2024/04/07 12:32:46;;;;;;;3.33;1.37;;;20.60;90.10;;;;;;5043404;28;20912;-41
2024/04/07 12:35:14;;;;;;;1.77;1.20;;;20.60;89.00;;;;;;5043685;28;20583;-42
2024/04/07 12:37:40;;;;;;;2.40;0.90;;;20.60;89.60;;;;;;5041560;28;20548;-41
2024/04/07 12:40:10;;;;;;;2.20;1.03;;;20.60;89.50;;;;;;5039376;28;20456;-39
2024/04/07 12:42:38;;;;;;;2.77;1.17;;;20.60;89.10;;;;;;5038222;28;20476;-40
2024/04/07 12:45:05;;;;;;;1.97;1.13;;;20.70;89.00;;;;;;5037771;28;20442;-42
2024/04/07 12:47:33;;;;;;;2.63;1.10;;;20.70;88.90;;;;;;5038538;28;20993;-41
2024/04/07 12:50:05;;;;;;;2.73;1.50;;;20.70;89.00;;;;;;5036548;28;20445;-40
2024/04/07 12:52:35;;;;;;;2.00;1.20;;;20.70;88.80;;;;;;5019146;28;20428;-42
2024/04/07 12:55:05;;;;;;;1.23;0.93;;;20.70;89.20;;;;;;5037827;28;20529;-42